sensor_id;sensor_type;location;lat;lon;timestamp;pressure;altitude;pressure_sealevel;temperature;humidity
37860;BME280;23698;52.014;5.190;2022-07-11T00:02:30;102391.84;;;16.57;100.00
37860;BME280;23698;52.014;5.190;2022-07-11T00:05:35;102388.75;;;16.60;100.00
37860;BME280;23698;52.014;5.190;2022-07-11T00:08:41;102384.09;;;16.61;100.00
37860;BME280;23698;52.014;5.190;2022-07-11T00:11:46;102387.28;;;16.65;100.00
37860;BME280;23698;52.014;5.190;2022-07-11T00:14:53;102390.69;;;16.67;100.00
37860;BME280;23698;52.014;5.190;2022-07-11T00:17:58;102378.50;;;16.69;100.00
37860;BME280;23698;52.014;5.190;2022-07-11T00:21:04;102374.72;;;16.70;100.00
37860;BME280;23698;52.014;5.190;2022-07-11T00:24:09;102380.06;;;16.78;100.00
37860;BME280;23698;52.014;5.190;2022-07-11T00:27:14;102376.28;;;16.79;100.00
37860;BME280;23698;52.014;5.190;2022-07-11T00:30:21;102376.28;;;16.79;100.00
37860;BME280;23698;52.014;5.190;2022-07-11T00:33:26;102377.63;;;16.84;100.00
37860;BME280;23698;52.014;5.190;2022-07-11T00:36:31;102373.75;;;16.78;100.00
37860;BME280;23698;52.014;5.190;2022-07-11T00:39:36;102375.84;;;16.76;100.00
37860;BME280;23698;52.014;5.190;2022-07-11T00:42:41;102383.63;;;16.79;100.00
37860;BME280;23698;52.014;5.190;2022-07-11T00:45:48;102375.44;;;16.79;100.00
37860;BME280;23698;52.014;5.190;2022-07-11T00:48:55;102378.38;;;16.77;100.00
37860;BME280;23698;52.014;5.190;2022-07-11T00:52:00;102366.94;;;16.74;100.00
37860;BME280;23698;52.014;5.190;2022-07-11T00:55:07;102368.06;;;16.79;100.00
37860;BME280;23698;52.014;5.190;2022-07-11T00:58:14;102369.13;;;16.78;100.00
37860;BME280;23698;52.014;5.190;2022-07-11T01:01:21;102370.16;;;16.77;100.00
37860;BME280;23698;52.014;5.190;2022-07-11T01:04:26;102370.16;;;16.77;100.00
37860;BME280;23698;52.014;5.190;2022-07-11T01:07:32;102378.59;;;16.76;100.00
37860;BME280;23698;52.014;5.190;2022-07-11T01:10:37;102371.00;;;16.78;100.00
37860;BME280;23698;52.014;5.190;2022-07-11T01:13:42;102366.19;;;16.80;100.00
37860;BME280;23698;52.014;5.190;2022-07-11T01:16:51;102374.19;;;16.82;100.00
37860;BME280;23698;52.014;5.190;2022-07-11T01:19:56;102367.63;;;16.76;100.00
37860;BME280;23698;52.014;5.190;2022-07-11T01:23:03;102376.41;;;16.71;100.00
37860;BME280;23698;52.014;5.190;2022-07-11T01:26:10;102379.81;;;16.73;100.00
37860;BME280;23698;52.014;5.190;2022-07-11T01:29:16;102366.75;;;16.75;100.00
37860;BME280;23698;52.014;5.190;2022-07-11T01:32:21;102376.59;;;16.70;100.00
37860;BME280;23698;52.014;5.190;2022-07-11T01:35:28;102368.84;;;16.73;100.00
37860;BME280;23698;52.014;5.190;2022-07-11T01:38:35;102379.81;;;16.73;100.00
37860;BME280;23698;52.014;5.190;2022-07-11T01:41:40;102377.91;;;16.74;100.00
37860;BME280;23698;52.014;5.190;2022-07-11T01:44:46;102376.22;;;16.73;100.00
37860;BME280;23698;52.014;5.190;2022-07-11T01:47:51;102381.44;;;16.68;100.00
37860;BME280;23698;52.014;5.190;2022-07-11T01:50:56;102381.91;;;16.71;100.00
37860;BME280;23698;52.014;5.190;2022-07-11T01:54:03;102383.34;;;16.67;100.00
37860;BME280;23698;52.014;5.190;2022-07-11T01:57:08;102385.63;;;16.64;100.00
37860;BME280;23698;52.014;5.190;2022-07-11T02:00:14;102389.19;;;16.64;100.00
37860;BME280;23698;52.014;5.190;2022-07-11T02:03:19;102379.91;;;16.65;100.00
37860;BME280;23698;52.014;5.190;2022-07-11T02:06:24;102380.59;;;16.67;100.00
37860;BME280;23698;52.014;5.190;2022-07-11T02:09:31;102375.78;;;16.69;100.00
37860;BME280;23698;52.014;5.190;2022-07-11T02:12:36;102369.47;;;16.69;100.00
37860;BME280;23698;52.014;5.190;2022-07-11T02:15:43;102372.31;;;16.60;100.00
37860;BME280;23698;52.014;5.190;2022-07-11T02:18:50;102365.41;;;16.65;100.00
37860;BME280;23698;52.014;5.190;2022-07-11T02:21:55;102372.31;;;16.60;100.00
37860;BME280;23698;52.014;5.190;2022-07-11T02:25:01;102366.72;;;16.69;100.00
37860;BME280;23698;52.014;5.190;2022-07-11T02:28:08;102363.72;;;16.64;100.00
37860;BME280;23698;52.014;5.190;2022-07-11T02:31:14;102367.75;;;16.68;100.00
37860;BME280;23698;52.014;5.190;2022-07-11T02:34:19;102365.59;;;16.63;100.00
37860;BME280;23698;52.014;5.190;2022-07-11T02:37:24;102362.28;;;16.68;100.00
37860;BME280;23698;52.014;5.190;2022-07-11T02:40:30;102367.09;;;16.66;100.00
37860;BME280;23698;52.014;5.190;2022-07-11T02:43:35;102354.25;;;16.66;100.00
37860;BME280;23698;52.014;5.190;2022-07-11T02:46:40;102359.53;;;16.68;100.00
37860;BME280;23698;52.014;5.190;2022-07-11T02:49:46;102360.56;;;16.67;100.00
37860;BME280;23698;52.014;5.190;2022-07-11T02:52:52;102363.50;;;16.65;100.00
37860;BME280;23698;52.014;5.190;2022-07-11T02:55:59;102354.06;;;16.68;100.00
37860;BME280;23698;52.014;5.190;2022-07-11T02:59:04;102365.41;;;16.65;100.00
37860;BME280;23698;52.014;5.190;2022-07-11T03:02:09;102365.00;;;16.68;100.00
37860;BME280;23698;52.014;5.190;2022-07-11T03:05:15;102368.13;;;16.65;100.00
37860;BME280;23698;52.014;5.190;2022-07-11T03:08:20;102366.91;;;16.67;100.00
37860;BME280;23698;52.014;5.190;2022-07-11T03:11:28;102362.28;;;16.68;100.00
37860;BME280;23698;52.014;5.190;2022-07-11T03:14:33;102363.50;;;16.65;100.00
37860;BME280;23698;52.014;5.190;2022-07-11T03:17:38;102365.59;;;16.63;100.00
37860;BME280;23698;52.014;5.190;2022-07-11T03:20:43;102364.38;;;16.66;100.00
37860;BME280;23698;52.014;5.190;2022-07-11T03:23:48;102375.88;;;16.61;100.00
37860;BME280;23698;52.014;5.190;2022-07-11T03:26:56;102380.06;;;16.57;100.00
37860;BME280;23698;52.014;5.190;2022-07-11T03:30:01;102384.22;;;16.53;100.00
37860;BME280;23698;52.014;5.190;2022-07-11T03:33:07;102378.97;;;16.51;100.00
37860;BME280;23698;52.014;5.190;2022-07-11T03:36:12;102385.84;;;16.47;100.00
37860;BME280;23698;52.014;5.190;2022-07-11T03:39:17;102383.09;;;16.47;100.00
37860;BME280;23698;52.014;5.190;2022-07-11T03:42:24;102373.59;;;16.43;100.00
37860;BME280;23698;52.014;5.190;2022-07-11T03:45:29;102385.00;;;16.47;100.00
37860;BME280;23698;52.014;5.190;2022-07-11T03:48:35;102373.88;;;16.48;100.00
37860;BME280;23698;52.014;5.190;2022-07-11T03:51:40;102380.09;;;16.42;100.00
37860;BME280;23698;52.014;5.190;2022-07-11T03:54:45;102383.50;;;16.44;100.00
37860;BME280;23698;52.014;5.190;2022-07-11T03:57:52;102379.81;;;16.52;100.00
37860;BME280;23698;52.014;5.190;2022-07-11T04:00:57;102375.63;;;16.56;100.00
37860;BME280;23698;52.014;5.190;2022-07-11T04:04:03;102381.09;;;16.56;100.00
37860;BME280;23698;52.014;5.190;2022-07-11T04:07:20;102379.88;;;16.58;100.00
37860;BME280;23698;52.014;5.190;2022-07-11T04:10:25;102378.34;;;16.56;100.00
37860;BME280;23698;52.014;5.190;2022-07-11T04:13:33;102378.34;;;16.56;100.00
37860;BME280;23698;52.014;5.190;2022-07-11T04:16:38;102375.63;;;16.56;100.00
37860;BME280;23698;52.014;5.190;2022-07-11T04:19:43;102377.41;;;16.64;100.00
37860;BME280;23698;52.014;5.190;2022-07-11T04:22:49;102386.25;;;16.66;100.00
37860;BME280;23698;52.014;5.190;2022-07-11T04:25:54;102382.00;;;16.63;100.00
37860;BME280;23698;52.014;5.190;2022-07-11T04:29:01;102374.94;;;16.69;100.00
37860;BME280;23698;52.014;5.190;2022-07-11T04:32:07;102384.81;;;16.70;100.00
37860;BME280;23698;52.014;5.190;2022-07-11T04:35:12;102379.16;;;16.71;100.00
37860;BME280;23698;52.014;5.190;2022-07-11T04:38:18;102382.28;;;16.68;100.00
37860;BME280;23698;52.014;5.190;2022-07-11T04:41:25;102375.84;;;16.76;100.00
37860;BME280;23698;52.014;5.190;2022-07-11T04:44:32;102373.69;;;16.71;100.00
37860;BME280;23698;52.014;5.190;2022-07-11T04:47:37;102375.50;;;16.64;100.00
37860;BME280;23698;52.014;5.190;2022-07-11T04:50:42;102384.19;;;16.68;100.00
37860;BME280;23698;52.014;5.190;2022-07-11T04:53:48;102374.94;;;16.69;100.00
37860;BME280;23698;52.014;5.190;2022-07-11T04:56:53;102388.53;;;16.62;100.00
37860;BME280;23698;52.014;5.190;2022-07-11T04:59:59;102386.94;;;16.53;100.00
37860;BME280;23698;52.014;5.190;2022-07-11T05:03:06;102392.88;;;16.56;100.00
37860;BME280;23698;52.014;5.190;2022-07-11T05:06:11;102382.88;;;16.64;100.00
37860;BME280;23698;52.014;5.190;2022-07-11T05:09:16;102390.63;;;16.60;100.00
37860;BME280;23698;52.014;5.190;2022-07-11T05:12:22;102399.03;;;16.58;100.00
37860;BME280;23698;52.014;5.190;2022-07-11T05:15:28;102404.31;;;16.60;100.00
37860;BME280;23698;52.014;5.190;2022-07-11T05:18:33;102406.19;;;16.59;100.00
37860;BME280;23698;52.014;5.190;2022-07-11T05:21:39;102404.09;;;16.61;100.00
37860;BME280;23698;52.014;5.190;2022-07-11T05:24:44;102415.94;;;16.62;100.00
37860;BME280;23698;52.014;5.190;2022-07-11T05:27:50;102419.50;;;16.63;100.00
37860;BME280;23698;52.014;5.190;2022-07-11T05:30:58;102422.25;;;16.63;100.00
37860;BME280;23698;52.014;5.190;2022-07-11T05:34:03;102426.69;;;16.64;100.00
37860;BME280;23698;52.014;5.190;2022-07-11T05:37:08;102431.34;;;16.48;100.00
37860;BME280;23698;52.014;5.190;2022-07-11T05:40:13;102434.28;;;16.47;100.00
37860;BME280;23698;52.014;5.190;2022-07-11T05:43:18;102437.47;;;16.50;100.00
37860;BME280;23698;52.014;5.190;2022-07-11T05:46:25;102440.44;;;16.34;100.00
37860;BME280;23698;52.014;5.190;2022-07-11T05:49:31;102447.13;;;16.31;100.00
37860;BME280;23698;52.014;5.190;2022-07-11T05:52:37;102450.06;;;16.30;100.00
37860;BME280;23698;52.014;5.190;2022-07-11T05:55:42;102445.25;;;16.32;100.00
37860;BME280;23698;52.014;5.190;2022-07-11T05:58:47;102447.59;;;16.35;100.00
37860;BME280;23698;52.014;5.190;2022-07-11T06:01:54;102446.38;;;16.37;100.00
37860;BME280;23698;52.014;5.190;2022-07-11T06:05:00;102444.75;;;16.43;100.00
37860;BME280;23698;52.014;5.190;2022-07-11T06:08:05;102446.06;;;16.47;100.00
37860;BME280;23698;52.014;5.190;2022-07-11T06:11:27;102452.88;;;16.51;100.00
37860;BME280;23698;52.014;5.190;2022-07-11T06:14:33;102456.63;;;16.50;100.00
37860;BME280;23698;52.014;5.190;2022-07-11T06:17:39;102455.91;;;16.41;100.00
37860;BME280;23698;52.014;5.190;2022-07-11T06:20:45;102447.97;;;16.47;100.00
37860;BME280;23698;52.014;5.190;2022-07-11T06:23:50;102443.31;;;16.47;100.00
37860;BME280;23698;52.014;5.190;2022-07-11T06:26:56;102443.22;;;16.55;100.00
37860;BME280;23698;52.014;5.190;2022-07-11T06:30:05;102451.31;;;16.64;100.00
37860;BME280;23698;52.014;5.190;2022-07-11T06:33:12;102449.28;;;16.87;100.00
37860;BME280;23698;52.014;5.190;2022-07-11T06:36:19;102450.03;;;16.81;100.00
37860;BME280;23698;52.014;5.190;2022-07-11T06:39:25;102437.03;;;17.05;100.00
37860;BME280;23698;52.014;5.190;2022-07-11T06:42:31;102445.59;;;16.95;100.00
37860;BME280;23698;52.014;5.190;2022-07-11T06:45:37;102438.59;;;16.92;100.00
37860;BME280;23698;52.014;5.190;2022-07-11T06:48:44;102442.84;;;16.95;100.00
37860;BME280;23698;52.014;5.190;2022-07-11T06:51:49;102444.66;;;17.09;100.00
37860;BME280;23698;52.014;5.190;2022-07-11T06:54:55;102440.81;;;17.04;100.00
37860;BME280;23698;52.014;5.190;2022-07-11T06:58:01;102431.53;;;17.05;100.00
37860;BME280;23698;52.014;5.190;2022-07-11T07:01:26;102432.13;;;17.22;100.00
37860;BME280;23698;52.014;5.190;2022-07-11T07:04:33;102434.75;;;17.30;100.00
37860;BME280;23698;52.014;5.190;2022-07-11T07:07:38;102437.50;;;17.36;100.00
37860;BME280;23698;52.014;5.190;2022-07-11T07:10:44;102431.38;;;17.63;100.00
37860;BME280;23698;52.014;5.190;2022-07-11T07:13:49;102419.69;;;17.82;100.00
37860;BME280;23698;52.014;5.190;2022-07-11T07:16:54;102424.84;;;17.92;100.00
37860;BME280;23698;52.014;5.190;2022-07-11T07:20:02;102432.97;;;18.14;100.00
37860;BME280;23698;52.014;5.190;2022-07-11T07:23:08;102425.03;;;18.32;100.00
37860;BME280;23698;52.014;5.190;2022-07-11T07:26:13;102418.28;;;18.35;100.00
37860;BME280;23698;52.014;5.190;2022-07-11T07:29:18;102425.47;;;18.36;100.00
37860;BME280;23698;52.014;5.190;2022-07-11T07:32:23;102433.50;;;18.37;100.00
37860;BME280;23698;52.014;5.190;2022-07-11T07:35:30;102435.41;;;18.43;100.00
37860;BME280;23698;52.014;5.190;2022-07-11T07:38:35;102434.84;;;18.55;100.00
37860;BME280;23698;52.014;5.190;2022-07-11T07:41:41;102434.22;;;18.53;100.00
37860;BME280;23698;52.014;5.190;2022-07-11T07:44:46;102438.63;;;18.47;100.00
37860;BME280;23698;52.014;5.190;2022-07-11T07:47:51;102435.56;;;18.83;100.00
37860;BME280;23698;52.014;5.190;2022-07-11T07:50:57;102437.72;;;19.15;100.00
37860;BME280;23698;52.014;5.190;2022-07-11T07:54:02;102441.97;;;19.17;100.00
37860;BME280;23698;52.014;5.190;2022-07-11T07:57:07;102437.75;;;19.41;100.00
37860;BME280;23698;52.014;5.190;2022-07-11T08:00:13;102441.56;;;19.20;100.00
37860;BME280;23698;52.014;5.190;2022-07-11T08:03:41;102443.66;;;19.32;100.00
37860;BME280;23698;52.014;5.190;2022-07-11T08:06:48;102442.81;;;19.31;100.00
37860;BME280;23698;52.014;5.190;2022-07-11T08:09:53;102443.88;;;19.50;100.00
37860;BME280;23698;52.014;5.190;2022-07-11T08:12:58;102444.28;;;19.80;100.00
37860;BME280;23698;52.014;5.190;2022-07-11T08:16:04;102441.13;;;19.77;100.00
37860;BME280;23698;52.014;5.190;2022-07-11T08:19:11;102440.88;;;19.65;100.00
37860;BME280;23698;52.014;5.190;2022-07-11T08:22:18;102443.22;;;19.68;100.00
37860;BME280;23698;52.014;5.190;2022-07-11T08:25:23;102438.75;;;19.94;100.00
37860;BME280;23698;52.014;5.190;2022-07-11T08:28:28;102440.22;;;19.90;100.00
37860;BME280;23698;52.014;5.190;2022-07-11T08:31:33;102439.16;;;19.97;100.00
37860;BME280;23698;52.014;5.190;2022-07-11T08:34:40;102449.34;;;19.90;100.00
37860;BME280;23698;52.014;5.190;2022-07-11T08:37:47;102440.63;;;19.93;100.00
37860;BME280;23698;52.014;5.190;2022-07-11T08:40:54;102443.75;;;20.17;100.00
37860;BME280;23698;52.014;5.190;2022-07-11T08:43:59;102437.66;;;20.02;100.00
37860;BME280;23698;52.014;5.190;2022-07-11T08:47:05;102431.97;;;19.96;100.00
37860;BME280;23698;52.014;5.190;2022-07-11T08:50:12;102427.28;;;20.04;100.00
37860;BME280;23698;52.014;5.190;2022-07-11T08:53:19;102429.28;;;20.35;100.00
37860;BME280;23698;52.014;5.190;2022-07-11T08:56:25;102422.94;;;20.80;100.00
37860;BME280;23698;52.014;5.190;2022-07-11T08:59:33;102427.56;;;20.79;100.00
37860;BME280;23698;52.014;5.190;2022-07-11T09:02:41;102416.50;;;20.86;100.00
37860;BME280;23698;52.014;5.190;2022-07-11T09:05:47;102423.97;;;20.79;100.00
37860;BME280;23698;52.014;5.190;2022-07-11T09:08:58;102427.56;;;20.79;100.00
37860;BME280;23698;52.014;5.190;2022-07-11T09:12:10;102422.91;;;21.11;100.00
37860;BME280;23698;52.014;5.190;2022-07-11T09:15:30;102426.38;;;20.68;100.00
37860;BME280;23698;52.014;5.190;2022-07-11T09:18:37;102424.88;;;20.72;100.00
37860;BME280;23698;52.014;5.190;2022-07-11T09:21:56;102434.72;;;20.93;100.00
37860;BME280;23698;52.014;5.190;2022-07-11T09:25:20;102429.09;;;20.75;100.00
37860;BME280;23698;52.014;5.190;2022-07-11T09:28:28;102430.44;;;20.59;100.00
37860;BME280;23698;52.014;5.190;2022-07-11T09:31:34;102432.25;;;20.33;100.00
37860;BME280;23698;52.014;5.190;2022-07-11T09:34:59;102435.41;;;20.37;100.00
37860;BME280;23698;52.014;5.190;2022-07-11T09:38:05;102430.69;;;20.44;100.00
37860;BME280;23698;52.014;5.190;2022-07-11T09:41:12;102435.53;;;20.55;100.00
37860;BME280;23698;52.014;5.190;2022-07-11T09:44:18;102431.38;;;20.85;100.00
37860;BME280;23698;52.014;5.190;2022-07-11T09:47:24;102428.47;;;21.05;100.00
37860;BME280;23698;52.014;5.190;2022-07-11T09:50:30;102430.63;;;20.71;100.00
37860;BME280;23698;52.014;5.190;2022-07-11T09:53:52;102418.47;;;21.36;100.00
37860;BME280;23698;52.014;5.190;2022-07-11T09:57:09;102422.53;;;21.58;100.00
37860;BME280;23698;52.014;5.190;2022-07-11T10:00:15;102420.75;;;21.64;100.00
37860;BME280;23698;52.014;5.190;2022-07-11T10:03:21;102414.78;;;21.42;100.00
37860;BME280;23698;52.014;5.190;2022-07-11T10:06:47;102425.03;;;21.09;100.00
37860;BME280;23698;52.014;5.190;2022-07-11T10:09:53;102427.09;;;21.14;100.00
37860;BME280;23698;52.014;5.190;2022-07-11T10:13:00;102426.63;;;21.49;100.00
37860;BME280;23698;52.014;5.190;2022-07-11T10:16:14;102433.41;;;21.21;100.00
37860;BME280;23698;52.014;5.190;2022-07-11T10:19:42;102428.19;;;21.38;100.00
37860;BME280;23698;52.014;5.190;2022-07-11T10:23:09;102436.63;;;21.43;100.00
37860;BME280;23698;52.014;5.190;2022-07-11T10:26:25;102434.72;;;20.93;100.00
37860;BME280;23698;52.014;5.190;2022-07-11T10:29:39;102435.00;;;21.10;100.00
37860;BME280;23698;52.014;5.190;2022-07-11T10:33:01;102433.84;;;21.25;100.00
37860;BME280;23698;52.014;5.190;2022-07-11T10:36:25;102435.00;;;21.61;100.00
37860;BME280;23698;52.014;5.190;2022-07-11T10:39:31;102431.97;;;21.69;100.00
37860;BME280;23698;52.014;5.190;2022-07-11T10:42:40;102425.47;;;22.00;100.00
37860;BME280;23698;52.014;5.190;2022-07-11T10:45:54;102429.16;;;22.31;100.00
37860;BME280;23698;52.014;5.190;2022-07-11T10:49:04;102428.16;;;22.07;100.00
37860;BME280;23698;52.014;5.190;2022-07-11T10:52:11;102429.38;;;21.93;100.00
37860;BME280;23698;52.014;5.190;2022-07-11T10:55:32;102433.69;;;22.07;100.00
37860;BME280;23698;52.014;5.190;2022-07-11T10:58:41;102434.94;;;22.60;100.00
37860;BME280;23698;52.014;5.190;2022-07-11T11:02:19;102438.31;;;22.62;100.00
37860;BME280;23698;52.014;5.190;2022-07-11T11:05:40;102426.66;;;22.60;100.00
37860;BME280;23698;52.014;5.190;2022-07-11T11:08:45;102435.03;;;22.53;100.00
37860;BME280;23698;52.014;5.190;2022-07-11T11:11:51;102430.16;;;22.67;100.00
37860;BME280;23698;52.014;5.190;2022-07-11T11:18:41;102423.38;;;23.47;100.00
37860;BME280;23698;52.014;5.190;2022-07-11T11:21:59;102429.00;;;23.76;100.00
37860;BME280;23698;52.014;5.190;2022-07-11T11:25:05;102432.16;;;23.68;100.00
37860;BME280;23698;52.014;5.190;2022-07-11T11:28:26;102435.38;;;24.00;100.00
37860;BME280;23698;52.014;5.190;2022-07-11T11:31:31;102429.25;;;24.10;100.00
37860;BME280;23698;52.014;5.190;2022-07-11T11:34:39;102431.13;;;24.09;100.00
37860;BME280;23698;52.014;5.190;2022-07-11T11:37:44;102438.38;;;24.10;100.00
37860;BME280;23698;52.014;5.190;2022-07-11T11:40:50;102432.03;;;23.86;100.00
37860;BME280;23698;52.014;5.190;2022-07-11T11:43:56;102432.38;;;23.90;100.00
37860;BME280;23698;52.014;5.190;2022-07-11T11:47:02;102419.63;;;23.77;100.00
37860;BME280;23698;52.014;5.190;2022-07-11T11:50:09;102415.41;;;23.98;100.00
37860;BME280;23698;52.014;5.190;2022-07-11T11:53:14;102413.25;;;24.86;100.00
37860;BME280;23698;52.014;5.190;2022-07-11T11:56:21;102411.88;;;25.35;100.00
37860;BME280;23698;52.014;5.190;2022-07-11T11:59:29;102415.88;;;24.07;100.00
37860;BME280;23698;52.014;5.190;2022-07-11T12:02:35;102406.34;;;24.43;100.00
37860;BME280;23698;52.014;5.190;2022-07-11T12:05:52;102404.25;;;24.62;100.00
37860;BME280;23698;52.014;5.190;2022-07-11T12:08:58;102409.94;;;25.18;100.00
37860;BME280;23698;52.014;5.190;2022-07-11T12:12:04;102405.22;;;24.85;100.00
37860;BME280;23698;52.014;5.190;2022-07-11T12:15:32;102411.31;;;24.41;100.00
37860;BME280;23698;52.014;5.190;2022-07-11T12:18:59;102412.56;;;24.62;100.00
37860;BME280;23698;52.014;5.190;2022-07-11T12:22:06;102417.59;;;25.45;100.00
37860;BME280;23698;52.014;5.190;2022-07-11T12:25:12;102413.28;;;25.54;100.00
37860;BME280;23698;52.014;5.190;2022-07-11T12:28:17;102414.56;;;25.30;100.00
37860;BME280;23698;52.014;5.190;2022-07-11T12:31:22;102409.25;;;25.62;100.00
37860;BME280;23698;52.014;5.190;2022-07-11T12:34:42;102409.97;;;25.74;100.00
37860;BME280;23698;52.014;5.190;2022-07-11T12:37:53;102410.63;;;25.25;100.00
37860;BME280;23698;52.014;5.190;2022-07-11T12:41:00;102414.00;;;25.28;100.00
37860;BME280;23698;52.014;5.190;2022-07-11T12:44:05;102409.19;;;24.60;100.00
37860;BME280;23698;52.014;5.190;2022-07-11T12:47:29;102400.41;;;24.80;100.00
37860;BME280;23698;52.014;5.190;2022-07-11T12:50:34;102391.94;;;25.21;100.00
37860;BME280;23698;52.014;5.190;2022-07-11T12:53:41;102398.47;;;24.64;100.00
37860;BME280;23698;52.014;5.190;2022-07-11T12:56:53;102395.34;;;24.77;100.00
37860;BME280;23698;52.014;5.190;2022-07-11T13:00:10;102393.94;;;24.75;100.00
37860;BME280;23698;52.014;5.190;2022-07-11T13:03:27;102386.38;;;24.87;100.00
37860;BME280;23698;52.014;5.190;2022-07-11T13:06:41;102391.50;;;24.78;100.00
37860;BME280;23698;52.014;5.190;2022-07-11T13:10:06;102393.06;;;24.57;100.00
37860;BME280;23698;52.014;5.190;2022-07-11T13:13:13;102390.16;;;24.52;100.00
37860;BME280;23698;52.014;5.190;2022-07-11T13:16:19;102389.44;;;24.57;100.00
37860;BME280;23698;52.014;5.190;2022-07-11T13:19:24;102393.28;;;25.01;100.00
37860;BME280;23698;52.014;5.190;2022-07-11T13:22:30;102385.09;;;25.62;100.00
37860;BME280;23698;52.014;5.190;2022-07-11T13:25:37;102381.75;;;26.27;100.00
37860;BME280;23698;52.014;5.190;2022-07-11T13:28:42;102383.88;;;25.75;100.00
37860;BME280;23698;52.014;5.190;2022-07-11T13:31:47;102383.97;;;25.08;100.00
37860;BME280;23698;52.014;5.190;2022-07-11T13:34:52;102383.09;;;25.07;100.00
37860;BME280;23698;52.014;5.190;2022-07-11T13:37:57;102367.69;;;26.38;100.00
37860;BME280;23698;52.014;5.190;2022-07-11T13:41:04;102370.81;;;26.42;100.00
37860;BME280;23698;52.014;5.190;2022-07-11T13:44:17;102370.06;;;26.25;100.00
37860;BME280;23698;52.014;5.190;2022-07-11T13:47:22;102378.94;;;25.82;100.00
37860;BME280;23698;52.014;5.190;2022-07-11T13:50:28;102374.44;;;25.76;100.00
37860;BME280;23698;52.014;5.190;2022-07-11T13:53:33;102373.97;;;26.51;100.00
37860;BME280;23698;52.014;5.190;2022-07-11T13:56:40;102370.56;;;26.71;100.00
37860;BME280;23698;52.014;5.190;2022-07-11T13:59:46;102369.91;;;26.09;100.00
37860;BME280;23698;52.014;5.190;2022-07-11T14:02:52;102371.06;;;26.68;100.00
37860;BME280;23698;52.014;5.190;2022-07-11T14:05:57;102372.00;;;27.11;100.00
37860;BME280;23698;52.014;5.190;2022-07-11T14:09:03;102366.06;;;27.35;100.00
37860;BME280;23698;52.014;5.190;2022-07-11T14:12:09;102367.28;;;27.11;100.00
37860;BME280;23698;52.014;5.190;2022-07-11T14:15:15;102369.53;;;27.57;100.00
37860;BME280;23698;52.014;5.190;2022-07-11T14:18:21;102361.31;;;27.83;100.00
37860;BME280;23698;52.014;5.190;2022-07-11T14:21:27;102364.38;;;28.75;100.00
37860;BME280;23698;52.014;5.190;2022-07-11T14:24:33;102363.81;;;27.79;100.00
37860;BME280;23698;52.014;5.190;2022-07-11T14:27:40;102367.53;;;27.95;100.00
37860;BME280;23698;52.014;5.190;2022-07-11T14:30:45;102364.03;;;28.41;100.00
37860;BME280;23698;52.014;5.190;2022-07-11T14:33:52;102377.06;;;28.15;100.00
37860;BME280;23698;52.014;5.190;2022-07-11T14:36:57;102371.19;;;27.53;100.00
37860;BME280;23698;52.014;5.190;2022-07-11T14:40:03;102370.75;;;28.45;100.00
37860;BME280;23698;52.014;5.190;2022-07-11T14:43:10;102368.56;;;29.29;100.00
37860;BME280;23698;52.014;5.190;2022-07-11T14:46:16;102366.03;;;28.87;100.00
37860;BME280;23698;52.014;5.190;2022-07-11T14:49:21;102364.31;;;28.50;100.00
37860;BME280;23698;52.014;5.190;2022-07-11T14:52:27;102362.41;;;29.32;100.00
37860;BME280;23698;52.014;5.190;2022-07-11T14:55:32;102363.56;;;28.85;100.00
37860;BME280;23698;52.014;5.190;2022-07-11T14:58:39;102355.63;;;29.59;100.00
37860;BME280;23698;52.014;5.190;2022-07-11T15:01:45;102359.44;;;30.44;100.00
37860;BME280;23698;52.014;5.190;2022-07-11T15:04:50;102355.56;;;31.09;100.00
37860;BME280;23698;52.014;5.190;2022-07-11T15:07:55;102355.38;;;31.00;100.00
37860;BME280;23698;52.014;5.190;2022-07-11T15:11:18;102353.38;;;29.66;100.00
37860;BME280;23698;52.014;5.190;2022-07-11T15:14:42;102358.19;;;28.53;100.00
37860;BME280;23698;52.014;5.190;2022-07-11T15:17:48;102352.09;;;29.23;100.00
37860;BME280;23698;52.014;5.190;2022-07-11T15:20:55;102347.44;;;30.38;100.00
37860;BME280;23698;52.014;5.190;2022-07-11T15:24:00;102348.50;;;30.82;100.00
37860;BME280;23698;52.014;5.190;2022-07-11T15:27:06;102355.84;;;27.98;100.00
37860;BME280;23698;52.014;5.190;2022-07-11T15:30:13;102361.88;;;28.79;100.00
37860;BME280;23698;52.014;5.190;2022-07-11T15:33:21;102353.13;;;28.39;100.00
37860;BME280;23698;52.014;5.190;2022-07-11T15:36:26;102347.97;;;27.90;100.00
37860;BME280;23698;52.014;5.190;2022-07-11T15:39:32;102340.31;;;28.33;100.00
37860;BME280;23698;52.014;5.190;2022-07-11T15:42:37;102348.78;;;27.80;100.00
37860;BME280;23698;52.014;5.190;2022-07-11T15:45:43;102343.28;;;29.75;100.00
37860;BME280;23698;52.014;5.190;2022-07-11T15:48:49;102337.63;;;30.46;100.00
37860;BME280;23698;52.014;5.190;2022-07-11T15:51:53;102340.22;;;30.32;100.00
37860;BME280;23698;52.014;5.190;2022-07-11T15:54:59;102337.25;;;30.87;100.00
37860;BME280;23698;52.014;5.190;2022-07-11T15:58:04;102335.03;;;31.18;100.00
37860;BME280;23698;52.014;5.190;2022-07-11T16:01:12;102339.31;;;29.92;100.00
37860;BME280;23698;52.014;5.190;2022-07-11T16:04:17;102333.41;;;30.83;100.00
37860;BME280;23698;52.014;5.190;2022-07-11T16:07:23;102328.91;;;30.82;100.00
37860;BME280;23698;52.014;5.190;2022-07-11T16:10:28;102325.13;;;30.23;100.00
37860;BME280;23698;52.014;5.190;2022-07-11T16:13:33;102319.88;;;30.90;100.00